• Join FlightAware (Why Join?)
  • Login
  • US Flag 
10:41AM EDT


 

Airport Tracker/Info


-or-


 

Live Flight TrackerFlight Track Log ✈ DAL330 ✈ 14-Jul-2013 ✈ KCVG - KATL

Flight Track Log - Related Links

Times and Time Zones

All times are in EDT time to prevent confusion due to time zone crossing. See the DAL330 flight status page for this flight to view local times or setup timezone preferences in your user account.

Time Position Orientation Groundspeed Altitude Reporting Facility
EDT Latitude Longitude Course Direction KTS MPH feet Rate Location/Type
12:14PM 39.0500 -84.6833 243° Southwest 175 201 1,500  Level Cincinnati TRACON
12:14PM 39.0500 -84.7167 270° West 170 196 2,400 1,500 Climbing Cincinnati TRACON
12:15PM 39.0500 -84.8000 270° West 271 312 3,800 2,340 Climbing Cincinnati TRACON
12:16PM 39.0000 -84.8500 218° Southwest 264 304 7,100 2,400 Climbing Cincinnati TRACON
12:17PM 38.7474 -84.6535 212° Southwest  Level Estimated
12:18PM 38.6470 -84.6488 211° Southwest  Level Estimated
12:18PM 38.8411 -84.8931 192° South 304 350 10,800  Level Indianapolis Center
12:19PM 38.6013 -84.7634 243° Southwest  Level FlightAware Approximate
12:19PM 38.7392 -84.9200 192° South 364 419 12,900  Level Indianapolis Center
12:20PM 38.6447 -84.9969 212° Southwest 399 459 15,300 2,160 Climbing Indianapolis Center
12:21PM 38.5492 -85.0794 214° Southwest 409 471 17,400 1,740 Climbing Indianapolis Center
12:22PM 38.4533 -85.1639 215° Southwest 415 478 19,000 1,620 Climbing Indianapolis Center
12:23PM 38.3467 -85.2556 214° Southwest 434 499 20,800 1,560 Climbing Indianapolis Center
12:24PM 38.2439 -85.3447 214° Southwest 440 506 22,300 1,500 Climbing Indianapolis Center
12:25PM 38.1383 -85.4344 214° Southwest 449 517 23,900 1,560 Climbing Indianapolis Center
12:26PM 38.0331 -85.5233 214° Southwest 451 519 25,600 1,560 Climbing Indianapolis Center
12:27PM 37.9300 -85.6119 214° Southwest 446 513 27,100 1,560 Climbing Indianapolis Center
12:28PM 37.8272 -85.6983 214° Southwest 442 509 28,800 1,680 Climbing Indianapolis Center
12:30PM 37.7053 -85.8014 214° Southwest 436 502 30,600 1,020 Climbing Indianapolis Center
12:31PM 37.6061 -85.8844 214° Southwest 428 493 31,000 180 Climbing Indianapolis Center
12:32PM 37.5031 -85.9719 214° Southwest 430 495 31,000  Level Indianapolis Center
12:33PM 37.4014 -86.0561 213° Southwest 433 498 31,000  Level Indianapolis Center
12:34PM 37.2986 -86.1408 213° Southwest 437 503 31,000  Level Indianapolis Center
12:35PM 37.1958 -86.2278 214° Southwest 442 509 31,000  Level Indianapolis Center
12:36PM 37.0914 -86.3164 214° Southwest 438 504 31,000  Level Indianapolis Center
12:37PM 36.9919 -86.4017 214° Southwest 439 505 31,000  Level Indianapolis Center
12:38PM 36.8919 -86.4894 215° Southwest 436 502 31,000  Level Indianapolis Center
12:39PM 36.7908 -86.5772 215° Southwest 438 504 31,000  Level Indianapolis Center
12:40PM 36.6914 -86.6653 215° Southwest 436 502 31,000  Level Indianapolis Center
12:41PM 36.5858 -86.7294 206° Southwest 435 501 31,000  Level Indianapolis Center
12:42PM 36.4508 -86.7419 184° South 413 475 31,000  Level Indianapolis Center
12:43PM 36.3553 -86.7186 169° South 412 474 31,000  Level Indianapolis Center
12:44PM 36.2089 -86.6325 155° Southeast 412 474 31,000  Level Memphis Center
12:45PM 36.1072 -86.5753 156° South 407 468 31,000  Level Memphis Center
12:46PM 36.0075 -86.5183 155° Southeast 396 456 31,000  Level Memphis Center
12:48PM 35.8186 -86.4075 155° Southeast 402 463 31,000  Level Atlanta Center
12:49PM 35.7175 -86.3483 155° Southeast 398 458 31,000  Level Atlanta Center
12:50PM 35.6250 -86.2717 146° Southeast 403 464 31,000  Level Atlanta Center
12:51PM 35.5303 -86.1978 148° Southeast 403 464 31,000  Level Atlanta Center
12:52PM 35.4378 -86.1214 146° Southeast 403 464 31,000 -300 Level Atlanta Center
12:53PM 35.3472 -86.0478 146° Southeast 408 470 30,400 -1,200 Descending Atlanta Center
12:54PM 35.2525 -85.9742 148° Southeast 403 464 28,700 -1,680 Descending Atlanta Center
12:55PM 35.1506 -85.9592 173° South 367 422 27,100 -1,800 Descending Atlanta Center
12:56PM 35.0486 -85.9389 171° South 373 429 25,200 -1,560 Descending Atlanta Center
12:57PM 34.9661 -85.8714 146° Southeast 359 413 24,000 -600 Descending Atlanta Center
12:58PM 34.8836 -85.7961 143° Southeast 359 413 24,000  Level Atlanta Center
12:59PM 34.8033 -85.7183 141° Southeast 365 420 24,000  Level Atlanta Center
01:00PM 34.7208 -85.6436 143° Southeast 371 427 24,000  Level Atlanta Center
01:01PM 34.6425 -85.5689 142° Southeast 371 427 24,000  Level Atlanta Center
01:02PM 34.5600 -85.4917 142° Southeast 371 427 24,000 -360 Level Atlanta Center
01:03PM 34.4794 -85.4172 143° Southeast 371 427 23,300 -1,500 Descending Atlanta Center
01:04PM 34.4008 -85.3428 142° Southeast 366 421 21,100 -2,160 Descending Atlanta Center
01:05PM 34.3308 -85.2764 142° Southeast 361 415 19,000 -2,100 Descending Atlanta Center
01:06PM 34.2542 -85.2050 142° Southeast 356 410 17,000 -2,100 Descending Atlanta Center
01:07PM 34.1839 -85.1386 142° Southeast 341 392 14,900 -1,920 Descending Atlanta Center
01:08PM 34.1178 -85.0600 135° Southeast 326 375 13,200 -1,020 Descending Atlanta Center
01:09PM 34.0597 -84.9892 135° Southeast 305 351 12,900 -960 Descending Atlanta Center
01:10PM 34.0019 -84.9133 133° Southeast 295 339 11,300 -1,500 Descending Atlanta Center
01:11PM 33.9333 -84.8900 164° South 255 293 10,000 -660 Descending Atlanta Center
01:12PM 33.8558 -84.9094 192° South 255 293 10,000 -60 Level Atlanta Center
01:13PM 33.7786 -84.9286 192° South 276 318 9,900 -660 Descending Atlanta Center
01:14PM 33.7014 -84.9278 179° South 276 318 8,700 -1,020 Descending Atlanta Center
01:15PM 33.6367 -84.9169 172° South 258 297 7,900 -780 Descending Atlanta Center
01:16PM 33.6333 -84.8333 93° East 188 216 7,100 -840 Descending Atlanta TRACON
01:17PM 33.6333 -84.7667 90° East 189 217 6,200 -1,020 Descending Atlanta TRACON
01:18PM 33.6333 -84.7167 90° East 188 216 5,100 -1,140 Descending Atlanta TRACON